sensor_id;sensor_type;location;lat;lon;timestamp;pressure;altitude;pressure_sealevel;temperature;humidity
4398;BME280;2213;49.720;7.296;2023-03-14T00:00:25;96250.75;;;10.57;100.00
4398;BME280;2213;49.720;7.296;2023-03-14T00:02:54;96235.28;;;10.55;100.00
4398;BME280;2213;49.720;7.296;2023-03-14T00:05:25;96237.34;;;10.53;100.00
4398;BME280;2213;49.720;7.296;2023-03-14T00:07:57;96228.94;;;10.51;100.00
4398;BME280;2213;49.720;7.296;2023-03-14T00:10:26;96239.06;;;10.48;100.00
4398;BME280;2213;49.720;7.296;2023-03-14T00:12:55;96235.19;;;10.50;100.00
4398;BME280;2213;49.720;7.296;2023-03-14T00:15:25;96227.56;;;10.49;100.00
4398;BME280;2213;49.720;7.296;2023-03-14T00:17:55;96210.88;;;10.50;100.00
4398;BME280;2213;49.720;7.296;2023-03-14T00:20:24;96223.94;;;10.50;100.00
4398;BME280;2213;49.720;7.296;2023-03-14T00:22:54;96220.78;;;10.48;100.00
4398;BME280;2213;49.720;7.296;2023-03-14T00:25:25;96216.31;;;10.48;100.00
4398;BME280;2213;49.720;7.296;2023-03-14T00:27:54;96210.53;;;10.46;100.00
4398;BME280;2213;49.720;7.296;2023-03-14T00:30:24;96207.38;;;10.44;100.00
4398;BME280;2213;49.720;7.296;2023-03-14T00:32:54;96216.44;;;10.42;100.00
4398;BME280;2213;49.720;7.296;2023-03-14T00:35:23;96229.06;;;10.45;100.00
4398;BME280;2213;49.720;7.296;2023-03-14T00:37:52;96227.16;;;10.40;100.00
4398;BME280;2213;49.720;7.296;2023-03-14T00:40:21;96219.53;;;10.39;100.00
4398;BME280;2213;49.720;7.296;2023-03-14T00:42:53;96224.53;;;10.40;100.00
4398;BME280;2213;49.720;7.296;2023-03-14T00:45:22;96213.84;;;10.42;100.00
4398;BME280;2213;49.720;7.296;2023-03-14T00:47:53;96212.03;;;10.42;100.00
4398;BME280;2213;49.720;7.296;2023-03-14T00:50:23;96208.41;;;10.43;100.00
4398;BME280;2213;49.720;7.296;2023-03-14T00:52:53;96207.81;;;10.41;100.00
4398;BME280;2213;49.720;7.296;2023-03-14T00:55:23;96206.78;;;10.42;100.00
4398;BME280;2213;49.720;7.296;2023-03-14T00:57:56;96216.22;;;10.43;100.00
4398;BME280;2213;49.720;7.296;2023-03-14T01:00:24;96220.44;;;10.44;100.00
4398;BME280;2213;49.720;7.296;2023-03-14T01:02:54;96213.63;;;10.43;100.00
4398;BME280;2213;49.720;7.296;2023-03-14T01:05:24;96215.91;;;10.40;100.00
4398;BME280;2213;49.720;7.296;2023-03-14T01:07:54;96218.97;;;10.37;100.00
4398;BME280;2213;49.720;7.296;2023-03-14T01:10:24;96212.16;;;10.36;100.00
4398;BME280;2213;49.720;7.296;2023-03-14T01:12:55;96211.81;;;10.32;100.00
4398;BME280;2213;49.720;7.296;2023-03-14T01:15:25;96217.28;;;10.31;100.00
4398;BME280;2213;49.720;7.296;2023-03-14T01:17:56;96215.69;;;10.30;100.00
4398;BME280;2213;49.720;7.296;2023-03-14T01:20:24;96227.75;;;10.31;100.00
4398;BME280;2213;49.720;7.296;2023-03-14T01:22:53;96226.16;;;10.30;100.00
4398;BME280;2213;49.720;7.296;2023-03-14T01:25:23;96222.28;;;10.32;100.00
4398;BME280;2213;49.720;7.296;2023-03-14T01:27:54;96225.34;;;10.29;100.00
4398;BME280;2213;49.720;7.296;2023-03-14T01:30:23;96221.94;;;10.29;100.00
4398;BME280;2213;49.720;7.296;2023-03-14T01:32:54;96224.00;;;10.27;100.00
4398;BME280;2213;49.720;7.296;2023-03-14T01:35:24;96234.19;;;10.28;100.00
4398;BME280;2213;49.720;7.296;2023-03-14T01:37:54;96231.59;;;10.28;100.00
4398;BME280;2213;49.720;7.296;2023-03-14T01:40:23;96213.22;;;10.23;100.00
4398;BME280;2213;49.720;7.296;2023-03-14T01:43:06;96205.94;;;10.25;100.00
4398;BME280;2213;49.720;7.296;2023-03-14T01:46:19;96196.97;;;10.21;100.00
4398;BME280;2213;49.720;7.296;2023-03-14T01:48:59;96206.06;;;10.19;100.00
4398;BME280;2213;49.720;7.296;2023-03-14T01:51:36;96202.66;;;10.18;100.00
4398;BME280;2213;49.720;7.296;2023-03-14T01:54:15;96205.03;;;10.20;100.00
4398;BME280;2213;49.720;7.296;2023-03-14T01:56:51;96187.56;;;10.20;100.00
4398;BME280;2213;49.720;7.296;2023-03-14T01:59:23;96193.78;;;10.19;100.00
4398;BME280;2213;49.720;7.296;2023-03-14T02:01:56;96184.94;;;10.20;100.00
4398;BME280;2213;49.720;7.296;2023-03-14T02:04:30;96177.88;;;10.21;100.00
4398;BME280;2213;49.720;7.296;2023-03-14T02:07:07;96164.81;;;10.21;100.00
4398;BME280;2213;49.720;7.296;2023-03-14T02:09:40;96158.25;;;10.18;100.00
4398;BME280;2213;49.720;7.296;2023-03-14T02:12:12;96163.25;;;10.20;100.00
4398;BME280;2213;49.720;7.296;2023-03-14T02:14:44;96145.75;;;10.20;100.00
4398;BME280;2213;49.720;7.296;2023-03-14T02:17:17;96148.69;;;10.12;100.00
4398;BME280;2213;49.720;7.296;2023-03-14T02:20:08;96144.16;;;10.07;100.00
4398;BME280;2213;49.720;7.296;2023-03-14T02:22:42;96141.78;;;10.06;100.00
4398;BME280;2213;49.720;7.296;2023-03-14T02:25:20;96135.53;;;10.07;100.00
4398;BME280;2213;49.720;7.296;2023-03-14T02:27:54;96149.16;;;10.09;100.00
4398;BME280;2213;49.720;7.296;2023-03-14T02:30:26;96144.94;;;10.08;100.00
4398;BME280;2213;49.720;7.296;2023-03-14T02:33:00;96133.25;;;10.10;100.00
4398;BME280;2213;49.720;7.296;2023-03-14T02:35:35;96142.59;;;10.06;100.00
4398;BME280;2213;49.720;7.296;2023-03-14T02:38:15;96148.72;;;10.00;100.00
4398;BME280;2213;49.720;7.296;2023-03-14T02:40:49;96136.44;;;10.01;100.00
4398;BME280;2213;49.720;7.296;2023-03-14T02:43:20;96136.78;;;10.04;100.00
4398;BME280;2213;49.720;7.296;2023-03-14T02:45:51;96124.53;;;10.05;100.00
4398;BME280;2213;49.720;7.296;2023-03-14T02:48:25;96131.91;;;10.08;100.00
4398;BME280;2213;49.720;7.296;2023-03-14T02:50:57;96128.16;;;10.04;100.00
4398;BME280;2213;49.720;7.296;2023-03-14T02:53:30;96123.72;;;10.04;100.00
4398;BME280;2213;49.720;7.296;2023-03-14T02:56:00;96120.31;;;10.04;100.00
4398;BME280;2213;49.720;7.296;2023-03-14T02:58:32;96116.47;;;10.06;100.00
4398;BME280;2213;49.720;7.296;2023-03-14T03:01:02;96116.47;;;10.06;100.00
4398;BME280;2213;49.720;7.296;2023-03-14T03:03:32;96112.28;;;10.05;100.00
4398;BME280;2213;49.720;7.296;2023-03-14T03:06:01;96109.88;;;10.04;100.00
4398;BME280;2213;49.720;7.296;2023-03-14T03:08:31;96115.69;;;10.06;100.00
4398;BME280;2213;49.720;7.296;2023-03-14T03:11:01;96115.91;;;10.04;100.00
4398;BME280;2213;49.720;7.296;2023-03-14T03:13:32;96106.72;;;10.02;100.00
4398;BME280;2213;49.720;7.296;2023-03-14T03:16:01;96095.25;;;10.03;100.00
4398;BME280;2213;49.720;7.296;2023-03-14T03:18:30;96101.72;;;10.00;100.00
4398;BME280;2213;49.720;7.296;2023-03-14T03:21:02;96092.53;;;9.98;100.00
4398;BME280;2213;49.720;7.296;2023-03-14T03:23:32;96085.97;;;9.95;100.00
4398;BME280;2213;49.720;7.296;2023-03-14T03:26:02;96090.13;;;9.96;100.00
4398;BME280;2213;49.720;7.296;2023-03-14T03:28:33;96093.00;;;9.95;100.00
4398;BME280;2213;49.720;7.296;2023-03-14T03:31:08;96094.25;;;9.92;100.00
4398;BME280;2213;49.720;7.296;2023-03-14T03:33:36;96087.19;;;9.93;100.00
4398;BME280;2213;49.720;7.296;2023-03-14T03:36:07;96088.00;;;9.93;100.00
4398;BME280;2213;49.720;7.296;2023-03-14T03:38:39;96076.75;;;9.93;100.00
4398;BME280;2213;49.720;7.296;2023-03-14T03:41:08;96073.03;;;9.89;100.00
4398;BME280;2213;49.720;7.296;2023-03-14T03:43:38;96074.59;;;9.90;100.00
4398;BME280;2213;49.720;7.296;2023-03-14T03:46:09;96064.16;;;9.90;100.00
4398;BME280;2213;49.720;7.296;2023-03-14T03:48:39;96058.94;;;9.90;100.00
4398;BME280;2213;49.720;7.296;2023-03-14T03:51:13;96064.63;;;9.87;100.00
4398;BME280;2213;49.720;7.296;2023-03-14T03:53:44;96055.44;;;9.84;100.00
4398;BME280;2213;49.720;7.296;2023-03-14T03:56:15;96055.19;;;9.86;100.00
4398;BME280;2213;49.720;7.296;2023-03-14T03:58:44;96050.22;;;9.84;100.00
4398;BME280;2213;49.720;7.296;2023-03-14T04:01:15;96057.81;;;9.86;100.00
4398;BME280;2213;49.720;7.296;2023-03-14T04:03:44;96054.66;;;9.84;100.00
4398;BME280;2213;49.720;7.296;2023-03-14T04:06:14;96054.66;;;9.84;100.00
4398;BME280;2213;49.720;7.296;2023-03-14T04:08:43;96048.88;;;9.82;100.00
4398;BME280;2213;49.720;7.296;2023-03-14T04:11:13;96047.63;;;9.73;100.00
4398;BME280;2213;49.720;7.296;2023-03-14T04:13:46;96038.00;;;9.73;100.00
4398;BME280;2213;49.720;7.296;2023-03-14T04:16:19;96041.06;;;9.70;100.00
4398;BME280;2213;49.720;7.296;2023-03-14T04:18:50;96034.97;;;9.65;100.00
4398;BME280;2213;49.720;7.296;2023-03-14T04:21:19;96044.47;;;9.71;100.00
4398;BME280;2213;49.720;7.296;2023-03-14T04:23:51;96039.00;;;9.72;100.00
4398;BME280;2213;49.720;7.296;2023-03-14T04:26:22;96037.44;;;9.71;100.00
4398;BME280;2213;49.720;7.296;2023-03-14T04:28:54;96028.25;;;9.69;100.00
4398;BME280;2213;49.720;7.296;2023-03-14T04:31:23;96032.69;;;9.68;100.00
4398;BME280;2213;49.720;7.296;2023-03-14T04:33:54;96021.22;;;9.69;100.00
4398;BME280;2213;49.720;7.296;2023-03-14T04:36:23;96042.00;;;9.64;100.00
4398;BME280;2213;49.720;7.296;2023-03-14T04:38:54;96039.06;;;9.60;100.00
4398;BME280;2213;49.720;7.296;2023-03-14T04:41:26;96029.63;;;9.59;100.00
4398;BME280;2213;49.720;7.296;2023-03-14T04:43:57;96041.09;;;9.58;100.00
4398;BME280;2213;49.720;7.296;2023-03-14T04:46:27;96018.66;;;9.57;100.00
4398;BME280;2213;49.720;7.296;2023-03-14T04:48:58;96027.03;;;9.59;100.00
4398;BME280;2213;49.720;7.296;2023-03-14T04:51:28;96019.53;;;9.63;100.00
4398;BME280;2213;49.720;7.296;2023-03-14T04:53:58;96022.16;;;9.63;100.00
4398;BME280;2213;49.720;7.296;2023-03-14T04:56:28;96021.94;;;9.65;100.00
4398;BME280;2213;49.720;7.296;2023-03-14T04:58:58;96017.59;;;9.58;100.00
4398;BME280;2213;49.720;7.296;2023-03-14T05:01:29;96008.97;;;9.58;100.00
4398;BME280;2213;49.720;7.296;2023-03-14T05:03:59;96008.97;;;9.58;100.00
4398;BME280;2213;49.720;7.296;2023-03-14T05:06:30;95996.50;;;9.60;100.00
4398;BME280;2213;49.720;7.296;2023-03-14T05:09:00;96004.56;;;9.58;100.00
4398;BME280;2213;49.720;7.296;2023-03-14T05:11:30;95989.38;;;9.55;100.00
4398;BME280;2213;49.720;7.296;2023-03-14T05:14:01;95988.09;;;9.58;100.00
4398;BME280;2213;49.720;7.296;2023-03-14T05:16:30;95981.31;;;9.57;100.00
4398;BME280;2213;49.720;7.296;2023-03-14T05:19:01;95973.25;;;9.58;100.00
4398;BME280;2213;49.720;7.296;2023-03-14T05:21:31;95973.72;;;9.55;100.00
4398;BME280;2213;49.720;7.296;2023-03-14T05:24:01;95954.91;;;9.53;100.00
4398;BME280;2213;49.720;7.296;2023-03-14T05:26:31;95949.69;;;9.53;100.00
4398;BME280;2213;49.720;7.296;2023-03-14T05:29:03;95947.06;;;9.53;100.00
4398;BME280;2213;49.720;7.296;2023-03-14T05:31:33;95945.28;;;9.54;100.00
4398;BME280;2213;49.720;7.296;2023-03-14T05:34:04;95933.47;;;9.51;100.00
4398;BME280;2213;49.720;7.296;2023-03-14T05:36:33;95933.72;;;9.50;100.00
4398;BME280;2213;49.720;7.296;2023-03-14T05:39:02;95937.00;;;9.45;100.00
4398;BME280;2213;49.720;7.296;2023-03-14T05:41:33;95935.75;;;9.48;100.00
4398;BME280;2213;49.720;7.296;2023-03-14T05:44:06;95937.31;;;9.49;100.00
4398;BME280;2213;49.720;7.296;2023-03-14T05:46:36;95943.13;;;9.51;100.00
4398;BME280;2213;49.720;7.296;2023-03-14T05:49:06;95938.66;;;9.51;100.00
4398;BME280;2213;49.720;7.296;2023-03-14T05:51:36;95940.63;;;9.44;100.00
4398;BME280;2213;49.720;7.296;2023-03-14T05:54:05;95929.19;;;9.45;100.00
4398;BME280;2213;49.720;7.296;2023-03-14T05:56:36;95926.09;;;9.48;100.00
4398;BME280;2213;49.720;7.296;2023-03-14T05:59:07;95923.59;;;9.53;100.00
4398;BME280;2213;49.720;7.296;2023-03-14T06:01:38;95924.06;;;9.50;100.00
4398;BME280;2213;49.720;7.296;2023-03-14T06:04:08;95916.47;;;9.49;100.00
4398;BME280;2213;49.720;7.296;2023-03-14T06:06:37;95926.91;;;9.49;100.00
4398;BME280;2213;49.720;7.296;2023-03-14T06:09:07;95918.84;;;9.50;100.00
4398;BME280;2213;49.720;7.296;2023-03-14T06:11:36;95924.41;;;9.54;100.00
4398;BME280;2213;49.720;7.296;2023-03-14T06:14:06;95918.84;;;9.50;100.00
4398;BME280;2213;49.720;7.296;2023-03-14T06:16:36;95935.06;;;9.52;100.00
4398;BME280;2213;49.720;7.296;2023-03-14T06:19:05;95937.13;;;9.50;100.00
4398;BME280;2213;49.720;7.296;2023-03-14T06:21:35;95937.78;;;9.46;100.00
4398;BME280;2213;49.720;7.296;2023-03-14T06:24:06;95932.91;;;9.49;100.00
4398;BME280;2213;49.720;7.296;2023-03-14T06:26:36;95937.31;;;9.49;100.00
4398;BME280;2213;49.720;7.296;2023-03-14T06:29:07;95932.13;;;9.49;100.00
4398;BME280;2213;49.720;7.296;2023-03-14T06:31:36;95944.28;;;9.43;100.00
4398;BME280;2213;49.720;7.296;2023-03-14T06:34:05;95936.19;;;9.45;100.00
4398;BME280;2213;49.720;7.296;2023-03-14T06:36:35;95933.13;;;9.48;100.00
4398;BME280;2213;49.720;7.296;2023-03-14T06:39:04;95932.38;;;9.47;100.00
4398;BME280;2213;49.720;7.296;2023-03-14T06:41:35;95925.63;;;9.51;100.00
4398;BME280;2213;49.720;7.296;2023-03-14T06:44:06;95936.53;;;9.48;100.00
4398;BME280;2213;49.720;7.296;2023-03-14T06:46:35;95936.53;;;9.48;100.00
4398;BME280;2213;49.720;7.296;2023-03-14T06:49:05;95938.66;;;9.51;100.00
4398;BME280;2213;49.720;7.296;2023-03-14T06:51:34;95939.47;;;9.52;100.00
4398;BME280;2213;49.720;7.296;2023-03-14T06:54:03;95930.75;;;9.46;100.00
4398;BME280;2213;49.720;7.296;2023-03-14T06:56:32;95928.72;;;9.48;100.00
4398;BME280;2213;49.720;7.296;2023-03-14T06:59:02;95924.53;;;9.47;100.00
4398;BME280;2213;49.720;7.296;2023-03-14T07:01:33;95930.31;;;9.49;100.00
4398;BME280;2213;49.720;7.296;2023-03-14T07:04:03;95926.44;;;9.52;100.00
4398;BME280;2213;49.720;7.296;2023-03-14T07:06:33;95925.63;;;9.51;100.00
4398;BME280;2213;49.720;7.296;2023-03-14T07:09:04;95914.88;;;9.48;100.00
4398;BME280;2213;49.720;7.296;2023-03-14T07:11:33;95926.69;;;9.50;100.00
4398;BME280;2213;49.720;7.296;2023-03-14T07:14:03;95928.81;;;9.53;100.00
4398;BME280;2213;49.720;7.296;2023-03-14T07:16:35;95927.16;;;9.47;100.00
4398;BME280;2213;49.720;7.296;2023-03-14T07:19:04;95940.19;;;9.47;100.00
4398;BME280;2213;49.720;7.296;2023-03-14T07:21:33;95928.50;;;9.50;100.00
4398;BME280;2213;49.720;7.296;2023-03-14T07:24:04;95931.44;;;9.53;100.00
4398;BME280;2213;49.720;7.296;2023-03-14T07:26:34;95937.19;;;9.55;100.00
4398;BME280;2213;49.720;7.296;2023-03-14T07:29:04;95941.41;;;9.56;100.00
4398;BME280;2213;49.720;7.296;2023-03-14T07:31:35;95941.47;;;9.61;100.00
4398;BME280;2213;49.720;7.296;2023-03-14T07:34:04;95952.16;;;9.60;100.00
4398;BME280;2213;49.720;7.296;2023-03-14T07:36:34;95938.09;;;9.61;100.00
4398;BME280;2213;49.720;7.296;2023-03-14T07:39:03;95945.69;;;9.63;100.00
4398;BME280;2213;49.720;7.296;2023-03-14T07:41:33;95942.06;;;9.64;100.00
4398;BME280;2213;49.720;7.296;2023-03-14T07:44:02;95941.94;;;9.58;100.00
4398;BME280;2213;49.720;7.296;2023-03-14T07:46:31;95954.19;;;9.58;100.00
4398;BME280;2213;49.720;7.296;2023-03-14T07:49:02;95945.13;;;9.60;100.00
4398;BME280;2213;49.720;7.296;2023-03-14T07:51:32;95945.34;;;9.59;100.00
4398;BME280;2213;49.720;7.296;2023-03-14T07:54:02;95944.31;;;9.60;100.00
4398;BME280;2213;49.720;7.296;2023-03-14T07:56:33;95946.69;;;9.61;100.00
4398;BME280;2213;49.720;7.296;2023-03-14T07:59:04;95945.34;;;9.59;100.00
4398;BME280;2213;49.720;7.296;2023-03-14T08:01:34;95951.34;;;9.59;100.00
4398;BME280;2213;49.720;7.296;2023-03-14T08:04:06;95959.28;;;9.65;100.00
4398;BME280;2213;49.720;7.296;2023-03-14T08:06:36;95962.25;;;9.68;100.00
4398;BME280;2213;49.720;7.296;2023-03-14T08:09:06;95960.66;;;9.67;100.00
4398;BME280;2213;49.720;7.296;2023-03-14T08:11:36;95965.41;;;9.70;100.00
4398;BME280;2213;49.720;7.296;2023-03-14T08:14:07;95965.72;;;9.74;100.00
4398;BME280;2213;49.720;7.296;2023-03-14T08:16:38;95965.41;;;9.70;100.00
4398;BME280;2213;49.720;7.296;2023-03-14T08:19:09;95976.63;;;9.71;100.00
4398;BME280;2213;49.720;7.296;2023-03-14T08:21:39;95961.28;;;9.74;100.00
4398;BME280;2213;49.720;7.296;2023-03-14T08:24:09;95966.84;;;9.78;100.00
4398;BME280;2213;49.720;7.296;2023-03-14T08:26:39;95960.69;;;9.84;100.00
4398;BME280;2213;49.720;7.296;2023-03-14T08:29:10;95972.25;;;9.88;100.00
4398;BME280;2213;49.720;7.296;2023-03-14T08:31:40;95971.78;;;9.91;100.00
4398;BME280;2213;49.720;7.296;2023-03-14T08:34:12;95971.31;;;9.94;100.00
4398;BME280;2213;49.720;7.296;2023-03-14T08:36:42;95969.28;;;9.96;100.00
4398;BME280;2213;49.720;7.296;2023-03-14T08:39:11;95974.03;;;9.99;100.00
4398;BME280;2213;49.720;7.296;2023-03-14T08:41:42;95965.16;;;10.00;100.00
4398;BME280;2213;49.720;7.296;2023-03-14T08:44:12;95971.97;;;10.01;100.00
4398;BME280;2213;49.720;7.296;2023-03-14T08:46:47;95975.16;;;10.03;100.00
4398;BME280;2213;49.720;7.296;2023-03-14T08:49:18;95966.75;;;10.01;100.00
4398;BME280;2213;49.720;7.296;2023-03-14T08:51:48;95966.84;;;10.06;100.00
4398;BME280;2213;49.720;7.296;2023-03-14T08:54:18;95968.41;;;10.07;100.00
4398;BME280;2213;49.720;7.296;2023-03-14T08:56:48;95957.47;;;10.10;100.00
4398;BME280;2213;49.720;7.296;2023-03-14T08:59:18;95965.78;;;10.07;100.00
4398;BME280;2213;49.720;7.296;2023-03-14T09:01:48;95979.53;;;10.14;100.00
4398;BME280;2213;49.720;7.296;2023-03-14T09:04:19;95979.63;;;10.19;100.00
4398;BME280;2213;49.720;7.296;2023-03-14T09:06:50;95979.16;;;10.22;100.00
4398;BME280;2213;49.720;7.296;2023-03-14T09:09:20;95979.16;;;10.22;100.00
4398;BME280;2213;49.720;7.296;2023-03-14T09:11:50;95978.94;;;10.24;100.00
4398;BME280;2213;49.720;7.296;2023-03-14T09:14:21;95985.56;;;10.31;100.00
4398;BME280;2213;49.720;7.296;2023-03-14T09:16:50;95986.94;;;10.34;100.00
4398;BME280;2213;49.720;7.296;2023-03-14T09:19:21;95980.97;;;10.38;100.00
4398;BME280;2213;49.720;7.296;2023-03-14T09:21:51;95980.97;;;10.38;100.00
4398;BME280;2213;49.720;7.296;2023-03-14T09:24:22;95983.13;;;10.41;100.00
4398;BME280;2213;49.720;7.296;2023-03-14T09:26:52;95985.81;;;10.46;100.00
4398;BME280;2213;49.720;7.296;2023-03-14T09:29:21;95977.75;;;10.48;100.00
4398;BME280;2213;49.720;7.296;2023-03-14T09:31:50;95981.22;;;10.53;100.00
4398;BME280;2213;49.720;7.296;2023-03-14T09:34:22;95995.00;;;10.49;100.00
4398;BME280;2213;49.720;7.296;2023-03-14T09:36:53;95991.91;;;10.52;100.00
4398;BME280;2213;49.720;7.296;2023-03-14T09:39:22;96003.25;;;10.57;100.00
4398;BME280;2213;49.720;7.296;2023-03-14T09:41:55;96002.78;;;10.60;100.00
4398;BME280;2213;49.720;7.296;2023-03-14T09:44:29;96003.91;;;10.65;100.00
4398;BME280;2213;49.720;7.296;2023-03-14T09:47:06;96007.53;;;10.64;100.00
4398;BME280;2213;49.720;7.296;2023-03-14T09:49:39;96006.50;;;10.65;100.00
4398;BME280;2213;49.720;7.296;2023-03-14T09:52:15;96006.81;;;10.68;100.00
4398;BME280;2213;49.720;7.296;2023-03-14T09:54:50;96012.28;;;10.67;100.00
4398;BME280;2213;49.720;7.296;2023-03-14T09:57:24;96016.00;;;10.71;100.00
4398;BME280;2213;49.720;7.296;2023-03-14T10:00:00;96011.09;;;10.74;100.00
4398;BME280;2213;49.720;7.296;2023-03-14T10:02:45;96011.41;;;10.78;100.00
4398;BME280;2213;49.720;7.296;2023-03-14T10:05:21;96016.09;;;10.76;100.00
4398;BME280;2213;49.720;7.296;2023-03-14T10:07:50;96017.66;;;10.77;100.00
4398;BME280;2213;49.720;7.296;2023-03-14T10:10:24;96014.56;;;10.80;100.00
4398;BME280;2213;49.720;7.296;2023-03-14T10:13:04;96017.75;;;10.82;100.00
4398;BME280;2213;49.720;7.296;2023-03-14T10:15:38;96020.69;;;10.85;100.00
4398;BME280;2213;49.720;7.296;2023-03-14T10:18:12;96026.41;;;10.82;100.00
4398;BME280;2213;49.720;7.296;2023-03-14T10:20:45;96024.47;;;10.78;100.00
4398;BME280;2213;49.720;7.296;2023-03-14T10:23:29;96025.59;;;10.82;100.00
4398;BME280;2213;49.720;7.296;2023-03-14T10:26:13;96038.09;;;10.80;100.00
4398;BME280;2213;49.720;7.296;2023-03-14T10:28:46;96040.72;;;10.80;100.00
4398;BME280;2213;49.720;7.296;2023-03-14T10:31:16;96053.88;;;10.85;100.00
4398;BME280;2213;49.720;7.296;2023-03-14T10:33:59;96065.34;;;10.84;100.00
4398;BME280;2213;49.720;7.296;2023-03-14T10:36:32;96069.47;;;10.80;100.00
4398;BME280;2213;49.720;7.296;2023-03-14T10:39:27;96113.41;;;10.66;100.00
4398;BME280;2213;49.720;7.296;2023-03-14T10:42:05;96145.03;;;10.65;100.00
4398;BME280;2213;49.720;7.296;2023-03-14T10:44:39;96131.13;;;10.47;100.00
4398;BME280;2213;49.720;7.296;2023-03-14T10:47:19;96152.63;;;10.38;100.00
4398;BME280;2213;49.720;7.296;2023-03-14T10:49:49;96162.84;;;10.39;100.00
4398;BME280;2213;49.720;7.296;2023-03-14T10:52:24;96186.38;;;10.28;100.00
4398;BME280;2213;49.720;7.296;2023-03-14T10:55:11;96179.00;;;10.25;100.00
4398;BME280;2213;49.720;7.296;2023-03-14T10:57:42;96191.06;;;10.14;100.00
4398;BME280;2213;49.720;7.296;2023-03-14T11:00:16;96214.56;;;10.02;100.00
4398;BME280;2213;49.720;7.296;2023-03-14T11:03:03;96208.88;;;9.94;100.00
4398;BME280;2213;49.720;7.296;2023-03-14T11:05:45;96223.31;;;9.85;100.00
4398;BME280;2213;49.720;7.296;2023-03-14T11:08:27;96246.00;;;9.73;100.00
4398;BME280;2213;49.720;7.296;2023-03-14T11:11:13;96259.50;;;9.70;100.00
4398;BME280;2213;49.720;7.296;2023-03-14T11:13:58;96276.97;;;9.69;100.00
4398;BME280;2213;49.720;7.296;2023-03-14T11:16:43;96284.00;;;9.57;100.00
4398;BME280;2213;49.720;7.296;2023-03-14T11:19:39;96286.00;;;9.55;100.00
4398;BME280;2213;49.720;7.296;2023-03-14T11:22:21;96287.72;;;9.49;100.00
4398;BME280;2213;49.720;7.296;2023-03-14T11:25:26;96305.75;;;9.51;100.00
4398;BME280;2213;49.720;7.296;2023-03-14T11:28:09;96301.31;;;9.51;100.00
4398;BME280;2213;49.720;7.296;2023-03-14T11:30:51;96318.72;;;9.57;100.00
4398;BME280;2213;49.720;7.296;2023-03-14T11:33:28;96333.66;;;9.50;100.00
4398;BME280;2213;49.720;7.296;2023-03-14T11:36:07;96333.06;;;9.48;100.00
4398;BME280;2213;49.720;7.296;2023-03-14T11:38:46;96333.56;;;9.57;100.00
4398;BME280;2213;49.720;7.296;2023-03-14T11:41:20;96353.53;;;9.63;100.00
4398;BME280;2213;49.720;7.296;2023-03-14T11:43:55;96361.72;;;9.67;100.00
4398;BME280;2213;49.720;7.296;2023-03-14T11:46:29;96365.78;;;9.63;100.00
4398;BME280;2213;49.720;7.296;2023-03-14T11:49:09;96376.38;;;9.68;100.00
4398;BME280;2213;49.720;7.296;2023-03-14T11:51:46;96379.94;;;9.55;100.00
4398;BME280;2213;49.720;7.296;2023-03-14T11:54:28;96383.69;;;9.47;100.00
4398;BME280;2213;49.720;7.296;2023-03-14T11:57:09;96388.59;;;9.37;100.00
4398;BME280;2213;49.720;7.296;2023-03-14T11:59:49;96397.59;;;9.41;100.00
4398;BME280;2213;49.720;7.296;2023-03-14T12:02:26;96407.84;;;9.54;100.00
4398;BME280;2213;49.720;7.296;2023-03-14T12:05:39;96420.91;;;9.54;100.00
4398;BME280;2213;49.720;7.296;2023-03-14T12:11:38;96433.53;;;9.39;100.00
4398;BME280;2213;49.720;7.296;2023-03-14T12:14:23;96461.94;;;9.47;100.00
4398;BME280;2213;49.720;7.296;2023-03-14T12:16:56;96449.91;;;9.46;100.00
4398;BME280;2213;49.720;7.296;2023-03-14T12:19:31;96465.66;;;9.40;100.00
4398;BME280;2213;49.720;7.296;2023-03-14T12:22:13;96496.16;;;9.39;100.00
4398;BME280;2213;49.720;7.296;2023-03-14T12:24:51;96490.78;;;9.34;100.00
4398;BME280;2213;49.720;7.296;2023-03-14T12:28:16;96510.78;;;9.22;100.00
4398;BME280;2213;49.720;7.296;2023-03-14T12:30:48;96533.34;;;9.10;100.00
4398;BME280;2213;49.720;7.296;2023-03-14T12:33:29;96523.72;;;9.10;100.00
4398;BME280;2213;49.720;7.296;2023-03-14T12:36:05;96535.72;;;8.93;100.00
4398;BME280;2213;49.720;7.296;2023-03-14T12:39:08;96540.28;;;8.98;100.00
4398;BME280;2213;49.720;7.296;2023-03-14T12:41:46;96572.84;;;8.89;100.00
4398;BME280;2213;49.720;7.296;2023-03-14T12:45:05;96574.75;;;8.75;100.00
4398;BME280;2213;49.720;7.296;2023-03-14T12:50:53;96599.84;;;8.70;100.00
4398;BME280;2213;49.720;7.296;2023-03-14T12:54:21;96593.78;;;8.76;100.00
4398;BME280;2213;49.720;7.296;2023-03-14T12:57:30;96612.22;;;8.81;100.00
4398;BME280;2213;49.720;7.296;2023-03-14T13:00:13;96623.44;;;8.81;100.00
4398;BME280;2213;49.720;7.296;2023-03-14T13:02:48;96641.06;;;8.79;100.00
4398;BME280;2213;49.720;7.296;2023-03-14T13:05:21;96641.03;;;8.86;100.00
4398;BME280;2213;49.720;7.296;2023-03-14T13:08:06;96635.00;;;8.92;100.00
4398;BME280;2213;49.720;7.296;2023-03-14T13:10:45;96643.44;;;8.87;100.00
4398;BME280;2213;49.720;7.296;2023-03-14T13:13:21;96650.25;;;8.88;100.00
4398;BME280;2213;49.720;7.296;2023-03-14T13:15:56;96641.88;;;8.80;100.00
4398;BME280;2213;49.720;7.296;2023-03-14T13:18:33;96649.34;;;8.70;100.00
4398;BME280;2213;49.720;7.296;2023-03-14T13:21:11;96639.91;;;8.75;100.00
4398;BME280;2213;49.720;7.296;2023-03-14T13:23:57;96656.19;;;8.71;100.00
4398;BME280;2213;49.720;7.296;2023-03-14T13:26:35;96661.94;;;8.79;100.00
4398;BME280;2213;49.720;7.296;2023-03-14T13:29:18;96658.09;;;8.82;100.00
4398;BME280;2213;49.720;7.296;2023-03-14T13:31:52;96664.66;;;8.91;100.00
4398;BME280;2213;49.720;7.296;2023-03-14T13:34:26;96673.25;;;8.98;100.00
4398;BME280;2213;49.720;7.296;2023-03-14T13:36:56;96680.22;;;9.04;100.00
4398;BME280;2213;49.720;7.296;2023-03-14T13:39:29;96683.78;;;9.09;100.00
4398;BME280;2213;49.720;7.296;2023-03-14T13:42:01;96678.19;;;9.06;100.00
4398;BME280;2213;49.720;7.296;2023-03-14T13:44:35;96694.59;;;9.13;100.00
4398;BME280;2213;49.720;7.296;2023-03-14T13:47:11;96687.38;;;9.15;100.00
4398;BME280;2213;49.720;7.296;2023-03-14T13:49:43;96690.19;;;9.14;100.00
4398;BME280;2213;49.720;7.296;2023-03-14T13:52:30;96707.44;;;9.15;100.00
4398;BME280;2213;49.720;7.296;2023-03-14T13:55:03;96715.06;;;9.16;100.00
4398;BME280;2213;49.720;7.296;2023-03-14T13:57:45;96723.63;;;9.23;100.00